createdAt,value
2023-02-28T00:01:45.215Z,0.48
2023-02-28T00:04:14.846Z,0.39
2023-02-28T00:06:43.505Z,0.38
2023-02-28T00:09:11.841Z,0.30
2023-02-28T00:11:40.117Z,0.21
2023-02-28T00:14:08.362Z,0.12
2023-02-28T00:16:36.675Z,0.01
2023-02-28T00:19:04.926Z,-0.11
2023-02-28T00:21:34.547Z,-0.19
2023-02-28T00:24:02.793Z,-0.22
2023-02-28T00:26:31.118Z,-0.16
2023-02-28T00:28:59.491Z,-0.14
2023-02-28T00:31:28.055Z,-0.14
2023-02-28T00:33:56.521Z,-0.15
2023-02-28T00:36:24.769Z,-0.22
2023-02-28T00:38:54.527Z,-0.17
2023-02-28T00:41:22.820Z,-0.21
2023-02-28T00:43:51.065Z,-0.26
2023-02-28T00:46:19.654Z,-0.31
2023-02-28T00:48:48.002Z,-0.37
2023-02-28T00:51:16.568Z,-0.46
2023-02-28T00:53:44.768Z,-0.55
2023-02-28T00:56:14.677Z,-0.59
2023-02-28T00:58:42.983Z,-0.64
2023-02-28T01:01:11.426Z,-0.69
2023-02-28T01:03:40.388Z,-0.70
2023-02-28T01:06:08.994Z,-0.72
2023-02-28T01:08:37.243Z,-0.75
2023-02-28T01:11:10.611Z,-0.80
2023-02-28T01:13:40.519Z,-0.87
2023-02-28T01:16:09.345Z,-0.85
2023-02-28T01:18:38.412Z,-0.80
2023-02-28T01:21:07.435Z,-0.74
2023-02-28T01:23:35.764Z,-0.75
2023-02-28T01:26:08.817Z,-0.72
2023-02-28T01:28:43.359Z,-0.77
2023-02-28T01:31:12.188Z,-0.80
2023-02-28T01:33:40.934Z,-0.86
2023-02-28T01:36:11.916Z,-0.89
2023-02-28T01:38:40.864Z,-0.93
2023-02-28T01:41:10.068Z,-0.87
2023-02-28T01:44:00.005Z,-0.89
2023-02-28T01:46:28.296Z,-0.90
2023-02-28T01:49:02.963Z,-0.94
2023-02-28T01:51:36.903Z,-0.94
2023-02-28T01:54:14.464Z,-0.97
2023-02-28T01:56:46.744Z,-1.05
2023-02-28T01:59:23.419Z,-1.09
2023-02-28T02:01:52.199Z,-1.09
2023-02-28T02:04:23.653Z,-1.13
2023-02-28T02:06:52.112Z,-1.14
2023-02-28T02:09:20.355Z,-1.11
2023-02-28T02:11:49.097Z,-1.10
2023-02-28T02:14:43.154Z,-1.09
2023-02-28T02:17:21.046Z,-1.09
2023-02-28T02:20:47.030Z,-1.08
2023-02-28T02:23:46.893Z,-1.17
2023-02-28T02:26:47.885Z,-1.20
2023-02-28T02:29:55.669Z,-1.26
2023-02-28T02:32:59.882Z,-1.29
2023-02-28T02:35:33.779Z,-1.27
2023-02-28T02:38:08.558Z,-1.33
2023-02-28T02:40:42.887Z,-1.27
2023-02-28T02:43:17.920Z,-1.25
2023-02-28T02:45:50.196Z,-1.17
2023-02-28T02:48:22.896Z,-1.00
2023-02-28T02:50:57.522Z,-0.91
2023-02-28T02:53:30.510Z,-0.87
2023-02-28T02:56:03.637Z,-0.80
2023-02-28T02:58:42.838Z,-0.75
2023-02-28T03:01:14.571Z,-0.70
2023-02-28T03:03:42.884Z,-0.71
2023-02-28T03:06:12.517Z,-0.73
2023-02-28T03:08:41.064Z,-0.69
2023-02-28T03:11:15.913Z,-0.57
2023-02-28T03:14:07.044Z,-0.52
2023-02-28T03:16:38.795Z,-0.40
2023-02-28T03:19:33.462Z,-0.34
2023-02-28T03:22:19.440Z,-0.28
2023-02-28T03:24:56.474Z,-0.26
2023-02-28T03:27:29.997Z,-0.28
2023-02-28T03:30:04.582Z,-0.31
2023-02-28T03:32:37.377Z,-0.21
2023-02-28T03:35:10.989Z,-0.09
2023-02-28T03:37:44.061Z,-0.01
2023-02-28T03:40:16.256Z,0.08
2023-02-28T03:42:49.932Z,0.19
2023-02-28T03:45:20.468Z,0.33
2023-02-28T03:47:54.553Z,0.44
2023-02-28T03:50:26.559Z,0.46
2023-02-28T03:53:05.722Z,0.46
2023-02-28T03:55:39.533Z,0.60
2023-02-28T03:58:13.392Z,0.62
2023-02-28T04:00:47.187Z,0.63
2023-02-28T04:03:16.024Z,0.60
2023-02-28T04:05:52.686Z,0.66
2023-02-28T04:08:23.755Z,0.63
2023-02-28T04:10:57.308Z,0.64
2023-02-28T04:13:25.705Z,0.68
2023-02-28T04:15:53.993Z,0.68
2023-02-28T04:18:22.229Z,0.69
2023-02-28T04:20:50.439Z,0.68
2023-02-28T04:23:18.642Z,0.69
2023-02-28T04:25:48.277Z,0.69
2023-02-28T04:28:16.535Z,0.69
2023-02-28T04:30:44.735Z,0.75
2023-02-28T04:33:13.136Z,0.77
2023-02-28T04:35:41.415Z,0.81
2023-02-28T04:38:09.672Z,0.76
2023-02-28T04:40:38.342Z,0.74
2023-02-28T04:43:07.963Z,0.73
2023-02-28T04:45:37.318Z,0.71
2023-02-28T04:48:05.937Z,0.78
2023-02-28T04:50:34.159Z,0.78
2023-02-28T04:53:02.353Z,0.87
2023-02-28T04:55:30.549Z,0.90
2023-02-28T04:57:58.838Z,0.90
2023-02-28T05:00:28.501Z,0.89
2023-02-28T05:02:56.715Z,0.91
2023-02-28T05:05:24.933Z,0.93
2023-02-28T05:07:54.545Z,0.94
2023-02-28T05:10:22.806Z,0.93
2023-02-28T05:12:51.046Z,0.96
2023-02-28T05:15:24.997Z,0.93
2023-02-28T05:17:54.683Z,1.04
2023-02-28T05:20:23.023Z,1.05
2023-02-28T05:22:52.888Z,1.13
2023-02-28T05:25:23.669Z,1.18
2023-02-28T05:27:51.948Z,1.17
2023-02-28T05:30:20.432Z,1.16
2023-02-28T05:32:52.879Z,1.22
2023-02-28T05:35:22.729Z,1.21
2023-02-28T05:37:51.108Z,1.26
2023-02-28T05:40:21.421Z,1.28
2023-02-28T05:42:51.909Z,1.29
2023-02-28T05:45:20.321Z,1.27
2023-02-28T05:47:48.514Z,1.32
2023-02-28T05:50:17.335Z,1.31
2023-02-28T05:52:50.798Z,1.38
2023-02-28T05:55:19.364Z,1.45
2023-02-28T05:57:47.610Z,1.45
2023-02-28T06:00:18.794Z,1.45
2023-02-28T06:02:47.064Z,1.49
2023-02-28T06:05:16.767Z,1.47
2023-02-28T06:07:46.690Z,1.55
2023-02-28T06:10:15.809Z,1.52
2023-02-28T06:12:44.143Z,1.53
2023-02-28T06:15:15.520Z,1.57
2023-02-28T06:17:44.505Z,1.57
2023-02-28T06:20:14.829Z,1.57
2023-02-28T06:22:43.852Z,1.53
2023-02-28T06:25:13.510Z,1.60
2023-02-28T06:27:41.958Z,1.64
2023-02-28T06:30:11.264Z,1.69
2023-02-28T06:32:40.274Z,1.71
2023-02-28T06:35:09.323Z,1.64
2023-02-28T06:37:40.227Z,1.58
2023-02-28T06:40:11.584Z,1.62
2023-02-28T06:42:41.389Z,1.56
2023-02-28T06:45:11.143Z,1.68
2023-02-28T06:47:41.499Z,1.70
2023-02-28T06:50:11.334Z,1.77
2023-02-28T06:52:40.284Z,1.75
2023-02-28T06:55:09.842Z,1.69
2023-02-28T06:57:38.690Z,1.76
2023-02-28T07:00:10.481Z,1.76
2023-02-28T07:02:39.890Z,1.86
2023-02-28T07:05:08.858Z,1.90
2023-02-28T07:07:39.131Z,1.88
2023-02-28T07:10:08.158Z,1.91
2023-02-28T07:12:36.394Z,2.09
2023-02-28T07:15:05.055Z,1.98
2023-02-28T07:17:34.639Z,2.07
2023-02-28T07:20:05.547Z,2.19
2023-02-28T07:22:33.962Z,2.08
2023-02-28T07:25:02.215Z,2.25
2023-02-28T07:27:30.434Z,2.28
2023-02-28T07:29:58.818Z,2.31
2023-02-28T07:32:27.231Z,2.25
2023-02-28T07:34:57.232Z,2.28
2023-02-28T07:37:25.491Z,2.37
2023-02-28T07:39:53.783Z,2.43
2023-02-28T07:42:22.383Z,2.50
2023-02-28T07:44:54.011Z,2.58
2023-02-28T07:47:24.516Z,2.60
2023-02-28T07:49:53.739Z,2.69
2023-02-28T07:52:24.555Z,2.73
2023-02-28T07:54:53.193Z,2.70
2023-02-28T07:57:21.428Z,2.74
2023-02-28T07:59:49.637Z,2.75
2023-02-28T08:02:20.571Z,2.78
2023-02-28T08:04:49.832Z,2.85
2023-02-28T08:07:19.943Z,2.97
2023-02-28T08:09:49.574Z,3.06
2023-02-28T08:12:17.794Z,3.11
2023-02-28T08:14:46.065Z,2.89
2023-02-28T08:17:29.173Z,3.00
2023-02-28T08:20:12.344Z,3.18
2023-02-28T08:22:40.684Z,3.16
2023-02-28T08:25:11.616Z,3.20
2023-02-28T08:27:40.053Z,3.29
2023-02-28T08:30:10.832Z,3.38
2023-02-28T08:32:39.476Z,3.40
2023-02-28T08:35:10.136Z,3.45
2023-02-28T08:37:39.017Z,3.43
2023-02-28T08:40:09.051Z,3.53
2023-02-28T08:42:39.080Z,3.57
2023-02-28T08:45:08.570Z,3.48
2023-02-28T08:47:36.768Z,3.32
2023-02-28T08:50:05.583Z,3.29
2023-02-28T08:52:33.819Z,3.32
2023-02-28T08:55:02.065Z,3.25
2023-02-28T08:57:30.295Z,3.39
2023-02-28T08:59:59.892Z,3.45
2023-02-28T09:02:28.169Z,3.34
2023-02-28T09:04:56.534Z,3.24
2023-02-28T09:07:24.891Z,3.41
2023-02-28T09:09:56.381Z,3.56
2023-02-28T09:12:25.197Z,3.60
2023-02-28T09:14:53.974Z,3.76
2023-02-28T09:17:23.905Z,3.79
2023-02-28T09:19:52.154Z,3.94
2023-02-28T09:22:20.389Z,3.97
2023-02-28T09:24:48.614Z,4.19
2023-02-28T09:27:16.864Z,4.24
2023-02-28T09:29:45.257Z,4.30
2023-02-28T09:32:13.513Z,4.32
2023-02-28T09:34:43.184Z,4.63
2023-02-28T09:37:11.516Z,4.69
2023-02-28T09:39:40.048Z,4.59
2023-02-28T09:42:16.268Z,4.46
2023-02-28T09:44:47.853Z,4.60
2023-02-28T09:47:24.064Z,4.72
2023-02-28T09:49:53.829Z,4.78
2023-02-28T09:52:32.214Z,4.59
2023-02-28T09:55:08.330Z,4.48
2023-02-28T09:57:40.902Z,4.45
2023-02-28T10:00:19.437Z,4.58
2023-02-28T10:03:08.779Z,4.67
2023-02-28T10:05:44.356Z,4.94
2023-02-28T10:08:16.660Z,4.94
2023-02-28T10:10:46.747Z,4.95
2023-02-28T10:13:22.744Z,5.15
2023-02-28T10:15:56.786Z,5.41
2023-02-28T10:18:29.164Z,5.62
2023-02-28T10:20:59.105Z,5.66
2023-02-28T10:23:30.839Z,5.66
2023-02-28T10:26:02.614Z,5.35
2023-02-28T10:28:33.067Z,5.51
2023-02-28T10:31:01.583Z,5.70
2023-02-28T10:33:32.328Z,5.79
2023-02-28T10:36:02.869Z,5.93
2023-02-28T10:38:35.461Z,5.93
2023-02-28T10:41:07.830Z,5.81
2023-02-28T10:43:38.686Z,6.14
2023-02-28T10:46:16.392Z,6.38
2023-02-28T10:48:48.964Z,6.75
2023-02-28T10:51:21.042Z,6.61
2023-02-28T10:54:02.344Z,6.91
2023-02-28T10:56:32.344Z,6.70
2023-02-28T10:59:02.466Z,6.66
2023-02-28T11:01:39.646Z,7.07
2023-02-28T11:04:20.208Z,6.64
2023-02-28T11:06:50.427Z,6.34
2023-02-28T11:09:25.069Z,6.35
2023-02-28T11:11:53.999Z,6.36
2023-02-28T11:14:24.339Z,6.23
2023-02-28T11:16:54.138Z,6.19
2023-02-28T11:19:27.360Z,6.58
2023-02-28T11:22:01.391Z,6.68
2023-02-28T11:24:34.001Z,6.46
2023-02-28T11:27:02.278Z,6.29
2023-02-28T11:29:32.333Z,6.45
2023-02-28T11:32:14.059Z,6.29
2023-02-28T11:34:43.384Z,6.30
2023-02-28T11:37:18.499Z,6.22
2023-02-28T11:39:47.653Z,6.46
2023-02-28T11:42:34.131Z,6.35
2023-02-28T11:45:19.173Z,6.43
2023-02-28T11:47:50.933Z,6.37
2023-02-28T11:50:28.835Z,6.10
2023-02-28T11:53:02.548Z,6.27
2023-02-28T11:55:34.855Z,6.27
2023-02-28T11:58:26.409Z,6.49
2023-02-28T12:01:09.404Z,6.50
2023-02-28T12:03:47.043Z,6.33
2023-02-28T12:06:25.900Z,6.72
2023-02-28T12:09:07.358Z,6.57
2023-02-28T12:11:48.202Z,6.88
2023-02-28T12:14:46.407Z,6.50
2023-02-28T12:17:30.221Z,6.49
2023-02-28T12:20:07.164Z,6.72
2023-02-28T12:22:38.853Z,6.64
2023-02-28T12:25:26.719Z,6.38
2023-02-28T12:27:55.594Z,6.35
2023-02-28T12:30:26.872Z,6.60
2023-02-28T12:32:58.841Z,6.52
2023-02-28T12:35:30.453Z,6.74
2023-02-28T12:38:05.399Z,6.75
2023-02-28T12:40:45.807Z,6.79
2023-02-28T12:43:16.896Z,6.80
2023-02-28T12:45:49.645Z,6.91
2023-02-28T12:48:26.550Z,6.89
2023-02-28T12:50:55.395Z,6.84
2023-02-28T12:53:29.906Z,6.87
2023-02-28T12:56:10.712Z,6.79
2023-02-28T12:58:43.669Z,6.78
2023-02-28T13:01:41.136Z,6.80
2023-02-28T13:04:34.363Z,6.66
2023-02-28T13:07:16.133Z,6.68
2023-02-28T13:09:54.916Z,6.78
2023-02-28T13:12:25.114Z,6.44
2023-02-28T13:15:02.526Z,6.65
2023-02-28T13:17:31.724Z,6.61
2023-02-28T13:20:01.500Z,7.03
2023-02-28T13:22:42.563Z,6.59
2023-02-28T13:25:50.730Z,6.93
2023-02-28T13:29:05.383Z,6.85
2023-02-28T13:31:55.561Z,6.95
2023-02-28T13:34:23.943Z,7.07
2023-02-28T13:36:52.209Z,7.30
2023-02-28T13:39:49.919Z,7.17
2023-02-28T13:42:38.366Z,6.99
2023-02-28T13:45:31.002Z,6.81
2023-02-28T13:48:03.794Z,6.58
2023-02-28T13:50:38.869Z,6.59
2023-02-28T13:53:41.560Z,6.82
2023-02-28T13:56:23.428Z,6.64
2023-02-28T13:58:56.830Z,6.69
2023-02-28T14:01:45.969Z,6.52
2023-02-28T14:04:41.480Z,6.78
2023-02-28T14:07:11.712Z,6.63
2023-02-28T14:09:47.584Z,6.52
2023-02-28T14:12:53.281Z,6.51
2023-02-28T14:15:41.994Z,6.66
2023-02-28T14:18:22.698Z,6.93
2023-02-28T14:20:56.981Z,6.73
2023-02-28T14:23:41.428Z,6.74
2023-02-28T14:26:22.968Z,6.74
2023-02-28T14:29:04.458Z,6.69
2023-02-28T14:31:39.037Z,6.73
2023-02-28T14:34:23.130Z,6.69
2023-02-28T14:36:55.277Z,6.56
2023-02-28T14:39:26.429Z,6.55
2023-02-28T14:41:55.572Z,6.63
2023-02-28T14:44:25.538Z,6.31
2023-02-28T14:46:56.621Z,6.52
2023-02-28T14:49:31.216Z,6.50
2023-02-28T14:52:14.075Z,6.84
2023-02-28T14:54:43.411Z,6.61
2023-02-28T14:57:24.211Z,6.85
2023-02-28T15:00:00.794Z,6.70
2023-02-28T15:02:33.688Z,7.00
2023-02-28T15:05:04.495Z,7.04
2023-02-28T15:07:34.159Z,6.76
2023-02-28T15:10:24.961Z,6.40
2023-02-28T15:12:57.409Z,6.33
2023-02-28T15:15:40.588Z,6.39
2023-02-28T15:18:23.589Z,6.27
2023-02-28T15:20:53.232Z,6.33
2023-02-28T15:23:24.037Z,6.61
2023-02-28T15:25:53.763Z,7.19
2023-02-28T15:28:24.774Z,7.77
2023-02-28T15:30:55.312Z,8.16
2023-02-28T15:33:25.961Z,7.93
2023-02-28T15:36:06.326Z,7.26
2023-02-28T15:38:38.536Z,7.03
2023-02-28T15:41:09.302Z,7.14
2023-02-28T15:43:40.346Z,7.07
2023-02-28T15:46:10.762Z,7.02
2023-02-28T15:48:46.444Z,6.33
2023-02-28T15:51:20.964Z,5.95
2023-02-28T15:53:54.354Z,5.93
2023-02-28T15:56:27.391Z,5.72
2023-02-28T15:58:57.253Z,5.71
2023-02-28T16:01:29.566Z,5.52
2023-02-28T16:04:01.717Z,5.36
2023-02-28T16:06:39.108Z,5.36
2023-02-28T16:09:12.862Z,5.39
2023-02-28T16:11:46.751Z,5.24
2023-02-28T16:14:19.264Z,5.13
2023-02-28T16:16:49.315Z,5.12
2023-02-28T16:19:17.869Z,5.07
2023-02-28T16:21:46.193Z,5.00
2023-02-28T16:24:15.820Z,4.96
2023-02-28T16:26:49.232Z,4.90
2023-02-28T16:29:25.000Z,4.92
2023-02-28T16:31:54.422Z,4.87
2023-02-28T16:34:23.263Z,4.79
2023-02-28T16:36:51.923Z,4.76
2023-02-28T16:39:22.223Z,4.72
2023-02-28T16:41:52.300Z,4.72
2023-02-28T16:44:30.033Z,4.60
2023-02-28T16:46:58.580Z,4.59
2023-02-28T16:49:26.992Z,4.58
2023-02-28T16:51:55.445Z,4.54
2023-02-28T16:54:25.147Z,4.51
2023-02-28T16:56:53.382Z,4.50
2023-02-28T16:59:25.069Z,4.45
2023-02-28T17:01:53.706Z,4.38
2023-02-28T17:04:22.190Z,4.35
2023-02-28T17:06:50.475Z,4.30
2023-02-28T17:09:20.986Z,4.23
2023-02-28T17:11:51.530Z,4.23
2023-02-28T17:14:19.784Z,4.18
2023-02-28T17:16:48.225Z,4.15
2023-02-28T17:19:18.678Z,4.15
2023-02-28T17:21:47.154Z,4.13
2023-02-28T17:24:22.141Z,4.06
2023-02-28T17:26:52.019Z,3.90
2023-02-28T17:29:22.149Z,3.83
2023-02-28T17:31:50.575Z,3.82
2023-02-28T17:34:20.705Z,3.80
2023-02-28T17:36:53.088Z,3.77
2023-02-28T17:39:25.274Z,3.70
2023-02-28T17:41:55.060Z,3.60
2023-02-28T17:44:25.006Z,3.47
2023-02-28T17:46:54.139Z,3.45
2023-02-28T17:49:22.989Z,3.32
2023-02-28T17:51:51.549Z,3.29
2023-02-28T17:54:19.844Z,3.27
2023-02-28T17:56:48.369Z,3.26
2023-02-28T17:59:18.015Z,3.25
2023-02-28T18:01:46.467Z,3.14
2023-02-28T18:04:14.746Z,3.13
2023-02-28T18:06:50.999Z,3.08
2023-02-28T18:09:22.608Z,2.97
2023-02-28T18:11:51.152Z,3.08
2023-02-28T18:14:23.738Z,3.06
2023-02-28T18:16:53.196Z,3.03
2023-02-28T18:19:21.931Z,3.03
2023-02-28T18:21:52.091Z,3.09
2023-02-28T18:24:21.477Z,3.06
2023-02-28T18:26:50.082Z,3.01
2023-02-28T18:29:22.004Z,3.01
2023-02-28T18:31:50.827Z,3.00
2023-02-28T18:34:19.235Z,3.04
2023-02-28T18:36:48.489Z,3.02
2023-02-28T18:39:17.378Z,2.97
2023-02-28T18:41:45.720Z,2.95
2023-02-28T18:44:20.105Z,2.96
2023-02-28T18:46:51.270Z,2.93
2023-02-28T18:49:19.994Z,2.95
2023-02-28T18:51:49.016Z,2.87
2023-02-28T18:54:18.362Z,2.81
2023-02-28T18:56:47.069Z,2.73
2023-02-28T18:59:15.491Z,2.61
2023-02-28T19:01:46.601Z,2.75
2023-02-28T19:04:16.638Z,2.69
2023-02-28T19:06:44.961Z,2.67
2023-02-28T19:09:13.266Z,2.56
2023-02-28T19:11:43.346Z,2.52
2023-02-28T19:14:11.591Z,2.49
2023-02-28T19:16:39.897Z,2.56
2023-02-28T19:19:08.181Z,2.62
2023-02-28T19:21:37.787Z,2.54
2023-02-28T19:24:06.706Z,2.50
2023-02-28T19:26:35.201Z,2.46
2023-02-28T19:29:04.800Z,2.41
2023-02-28T19:31:33.663Z,2.38
2023-02-28T19:34:02.407Z,2.35
2023-02-28T19:36:30.685Z,2.34
2023-02-28T19:39:00.326Z,2.32
2023-02-28T19:41:29.146Z,2.17
2023-02-28T19:43:57.626Z,2.13
2023-02-28T19:46:26.219Z,2.14
2023-02-28T19:48:55.217Z,2.20
2023-02-28T19:51:24.803Z,2.27
2023-02-28T19:53:53.117Z,2.28
2023-02-28T19:56:22.919Z,2.27
2023-02-28T19:58:51.388Z,2.31
2023-02-28T20:01:21.410Z,2.27
2023-02-28T20:03:51.342Z,2.27
2023-02-28T20:06:20.123Z,2.29
2023-02-28T20:08:48.431Z,2.25
2023-02-28T20:11:18.412Z,2.21
2023-02-28T20:13:48.423Z,2.19
2023-02-28T20:16:17.149Z,2.15
2023-02-28T20:18:46.172Z,2.15
2023-02-28T20:21:16.601Z,2.07
2023-02-28T20:23:47.470Z,2.08
2023-02-28T20:26:16.323Z,1.99
2023-02-28T20:28:45.314Z,1.97
2023-02-28T20:31:16.573Z,1.98
2023-02-28T20:33:46.935Z,1.96
2023-02-28T20:36:15.920Z,1.93
2023-02-28T20:38:44.339Z,1.97
2023-02-28T20:41:13.111Z,1.84
2023-02-28T20:43:42.574Z,1.82
2023-02-28T20:46:11.284Z,1.79
2023-02-28T20:48:41.849Z,1.76
2023-02-28T20:51:10.418Z,1.77
2023-02-28T20:53:39.772Z,1.76
2023-02-28T20:56:11.457Z,1.67
2023-02-28T20:58:40.559Z,1.61
2023-02-28T21:01:12.926Z,1.56
2023-02-28T21:03:43.431Z,1.49
2023-02-28T21:06:11.716Z,1.43
2023-02-28T21:08:41.348Z,1.38
2023-02-28T21:11:10.860Z,1.35
2023-02-28T21:13:39.970Z,1.31
2023-02-28T21:16:09.857Z,1.35
2023-02-28T21:18:39.242Z,1.27
2023-02-28T21:21:10.453Z,1.13
2023-02-28T21:23:39.786Z,1.01
2023-02-28T21:26:09.926Z,0.88
2023-02-28T21:28:44.255Z,0.88
2023-02-28T21:31:14.841Z,0.87
2023-02-28T21:33:44.092Z,0.81
2023-02-28T21:36:15.666Z,0.69
2023-02-28T21:38:44.832Z,0.65
2023-02-28T21:41:15.956Z,0.63
2023-02-28T21:43:45.640Z,0.55
2023-02-28T21:46:16.721Z,0.49
2023-02-28T21:48:45.645Z,0.43
2023-02-28T21:51:17.178Z,0.36
2023-02-28T21:53:45.666Z,0.33
2023-02-28T21:56:16.085Z,0.39
2023-02-28T21:58:44.405Z,0.47
2023-02-28T22:01:14.888Z,0.43
2023-02-28T22:03:44.066Z,0.36
2023-02-28T22:06:14.002Z,0.31
2023-02-28T22:08:45.300Z,0.32
2023-02-28T22:11:14.592Z,0.30
2023-02-28T22:13:43.399Z,0.20
2023-02-28T22:16:14.353Z,0.22
2023-02-28T22:18:43.186Z,0.19
2023-02-28T22:21:12.811Z,0.16
2023-02-28T22:23:44.574Z,0.09
2023-02-28T22:26:15.788Z,0.09
2023-02-28T22:28:44.124Z,-0.01
2023-02-28T22:31:17.622Z,0.02
2023-02-28T22:33:47.000Z,0.03
2023-02-28T22:36:17.176Z,0.15
2023-02-28T22:38:48.180Z,0.12
2023-02-28T22:41:16.472Z,0.04
2023-02-28T22:43:45.283Z,0.08
2023-02-28T22:46:14.788Z,0.02
2023-02-28T22:48:43.065Z,0.02
2023-02-28T22:51:14.763Z,0.01
2023-02-28T22:53:45.234Z,0.03
2023-02-28T22:56:16.202Z,0.02
2023-02-28T22:58:45.731Z,0.05
2023-02-28T23:01:15.928Z,0.09
2023-02-28T23:03:44.849Z,0.08
2023-02-28T23:06:15.891Z,0.09
2023-02-28T23:08:44.584Z,0.09
2023-02-28T23:11:19.233Z,0.07
2023-02-28T23:13:58.388Z,0.03
2023-02-28T23:16:30.037Z,0.02
2023-02-28T23:19:00.447Z,-0.03
2023-02-28T23:21:29.214Z,-0.01
2023-02-28T23:23:57.606Z,-0.05
2023-02-28T23:26:27.250Z,-0.05
2023-02-28T23:28:56.158Z,-0.07
2023-02-28T23:31:24.917Z,-0.14
2023-02-28T23:33:53.217Z,-0.14
2023-02-28T23:36:21.689Z,-0.14
2023-02-28T23:38:51.486Z,-0.12
2023-02-28T23:41:21.269Z,-0.10
2023-02-28T23:43:50.972Z,-0.14
2023-02-28T23:46:19.429Z,-0.17
2023-02-28T23:48:47.907Z,-0.14
2023-02-28T23:51:18.425Z,-0.13
2023-02-28T23:53:48.827Z,-0.08
2023-02-28T23:56:19.415Z,-0.10
2023-02-28T23:58:48.570Z,-0.12
